createdAt,value
2019-05-10T00:00:16.010Z,153070.50
2019-05-10T00:03:02.469Z,153038.92
2019-05-10T00:05:49.573Z,153057.31
2019-05-10T00:08:36.513Z,153065.22
2019-05-10T00:11:07.771Z,153049.45
2019-05-10T00:13:54.238Z,153049.45
2019-05-10T00:16:23.684Z,153052.06
2019-05-10T00:18:52.337Z,153061.28
2019-05-10T00:21:20.968Z,153046.78
2019-05-10T00:23:49.495Z,153049.45
2019-05-10T00:26:17.956Z,153057.31
2019-05-10T00:28:46.446Z,153063.91
2019-05-10T00:31:14.909Z,153054.69
2019-05-10T00:33:43.418Z,153073.13
2019-05-10T00:36:11.877Z,153067.83
2019-05-10T00:38:40.369Z,153057.31
2019-05-10T00:41:08.836Z,153066.53
2019-05-10T00:43:37.302Z,153067.83
2019-05-10T00:46:05.886Z,153052.06
2019-05-10T00:48:34.353Z,153069.19
2019-05-10T00:51:02.852Z,153070.50
2019-05-10T00:53:31.329Z,153069.19
2019-05-10T00:55:59.845Z,153067.83
2019-05-10T00:58:28.307Z,153058.66
2019-05-10T01:00:56.803Z,153049.45
2019-05-10T01:03:25.304Z,153041.55
2019-05-10T01:05:53.969Z,153038.92
2019-05-10T01:08:22.441Z,153058.66
2019-05-10T01:10:50.944Z,153054.69
2019-05-10T01:13:19.388Z,153044.16
2019-05-10T01:15:47.886Z,153059.97
2019-05-10T01:18:16.441Z,153042.84
2019-05-10T01:20:44.936Z,153044.16
2019-05-10T01:23:13.430Z,153033.64
2019-05-10T01:25:41.914Z,153054.69
2019-05-10T01:28:10.381Z,153049.45
2019-05-10T01:30:38.862Z,153052.06
2019-05-10T01:33:07.329Z,153045.47
2019-05-10T01:35:35.816Z,153041.55
2019-05-10T01:38:04.308Z,153049.45
2019-05-10T01:40:32.863Z,153046.78
2019-05-10T01:43:01.318Z,153041.55
2019-05-10T01:45:29.813Z,153049.45
2019-05-10T01:47:58.278Z,153025.73
2019-05-10T01:50:26.755Z,153034.94
2019-05-10T01:52:55.222Z,153033.64
2019-05-10T01:55:23.714Z,153050.75
2019-05-10T01:57:52.182Z,153052.06
2019-05-10T02:00:21.121Z,153031.02
2019-05-10T02:02:49.599Z,153044.16
2019-05-10T02:05:18.627Z,153052.06
2019-05-10T02:07:47.105Z,153058.66
2019-05-10T02:10:16.325Z,153062.59
2019-05-10T02:12:44.820Z,153048.14
2019-05-10T02:15:13.610Z,153053.37
2019-05-10T02:17:42.103Z,153045.47
2019-05-10T02:20:10.850Z,153040.23
2019-05-10T02:22:39.371Z,153029.72
2019-05-10T02:25:07.983Z,153036.25
2019-05-10T02:27:36.502Z,153044.16
2019-05-10T02:30:06.501Z,153028.41
2019-05-10T02:32:35.063Z,153023.11
2019-05-10T02:35:04.607Z,153031.02
2019-05-10T02:37:33.180Z,153046.78
2019-05-10T02:40:01.663Z,153028.41
2019-05-10T02:42:30.240Z,152994.16
2019-05-10T02:44:58.723Z,152999.44
2019-05-10T02:47:27.335Z,152990.23
2019-05-10T02:49:58.986Z,153012.59
2019-05-10T02:52:26.113Z,152988.92
2019-05-10T02:54:54.957Z,152959.97
2019-05-10T02:57:23.789Z,152959.97
2019-05-10T02:59:53.383Z,152959.97
2019-05-10T03:02:22.611Z,152944.16
2019-05-10T03:04:53.900Z,152869.16
2019-05-10T03:07:25.454Z,152902.03
2019-05-10T03:10:10.943Z,152930.97
2019-05-10T03:12:42.684Z,152874.44
2019-05-10T03:15:12.619Z,152909.92
2019-05-10T03:17:41.929Z,152937.56
2019-05-10T03:20:12.706Z,152925.73
2019-05-10T03:22:44.601Z,152887.58
2019-05-10T03:25:13.695Z,152877.06
2019-05-10T03:27:42.710Z,152915.22
2019-05-10T03:30:12.014Z,152902.03
2019-05-10T03:32:40.514Z,152913.91
2019-05-10T03:35:09.657Z,152933.64
2019-05-10T03:37:38.649Z,152938.87
2019-05-10T03:40:09.146Z,152946.78
2019-05-10T03:42:37.889Z,152932.28
2019-05-10T03:45:08.093Z,152930.97
2019-05-10T03:47:36.610Z,152919.14
2019-05-10T03:50:08.673Z,152903.39
2019-05-10T03:52:37.189Z,152941.50
2019-05-10T03:55:07.080Z,152928.36
2019-05-10T03:57:35.564Z,152880.98
2019-05-10T04:00:12.036Z,152899.41
2019-05-10T04:02:40.535Z,152907.31
2019-05-10T04:05:09.236Z,152894.17
2019-05-10T04:07:37.738Z,152916.53
2019-05-10T04:10:07.754Z,152930.97
2019-05-10T04:12:36.321Z,152936.25
2019-05-10T04:15:07.398Z,152899.41
2019-05-10T04:17:36.019Z,152913.91
2019-05-10T04:20:07.491Z,152898.09
2019-05-10T04:22:36.046Z,152888.89
2019-05-10T04:25:05.355Z,152927.05
2019-05-10T04:27:33.887Z,152941.50
2019-05-10T04:30:02.365Z,152936.25
2019-05-10T04:32:30.862Z,152928.36
2019-05-10T04:34:59.353Z,152945.47
2019-05-10T04:37:38.436Z,152915.22
2019-05-10T04:40:07.350Z,152956.03
2019-05-10T04:42:35.971Z,152965.25
2019-05-10T04:45:05.643Z,152975.78
2019-05-10T04:47:34.104Z,152962.59
2019-05-10T04:50:02.586Z,152973.11
2019-05-10T04:52:31.054Z,152977.09
2019-05-10T04:54:59.557Z,152967.88
2019-05-10T04:57:28.033Z,152973.11
2019-05-10T04:59:56.517Z,152970.50
2019-05-10T05:02:24.982Z,152992.84
2019-05-10T05:04:53.503Z,152979.70
2019-05-10T05:07:21.970Z,152991.53
2019-05-10T05:09:50.492Z,152982.33
2019-05-10T05:12:18.985Z,153013.91
2019-05-10T05:14:47.654Z,153020.50
2019-05-10T05:17:16.185Z,153019.19
2019-05-10T05:19:44.700Z,153041.55
2019-05-10T05:22:13.306Z,153036.25
2019-05-10T05:24:41.805Z,153038.92
2019-05-10T05:27:10.284Z,153031.02
2019-05-10T05:29:38.826Z,153054.69
2019-05-10T05:32:07.292Z,153075.73
2019-05-10T05:34:35.772Z,153075.73
2019-05-10T05:37:04.418Z,153100.78
2019-05-10T05:39:32.900Z,153123.14
2019-05-10T05:42:01.368Z,153162.63
2019-05-10T05:44:29.929Z,153187.62
2019-05-10T05:46:58.402Z,153231.06
2019-05-10T05:49:26.899Z,153244.22
2019-05-10T05:51:55.376Z,153321.97
2019-05-10T05:54:23.920Z,153394.41
2019-05-10T05:56:53.166Z,153406.27
2019-05-10T05:59:25.955Z,153385.19
2019-05-10T06:01:53.652Z,153406.27
2019-05-10T06:04:22.139Z,153441.86
2019-05-10T06:06:53.747Z,153437.87
2019-05-10T06:09:21.004Z,153436.56
2019-05-10T06:11:49.486Z,153453.72
2019-05-10T06:14:17.993Z,153462.94
2019-05-10T06:16:51.477Z,153439.19
2019-05-10T06:19:19.869Z,153432.63
2019-05-10T06:21:46.876Z,153431.31
2019-05-10T06:24:15.833Z,153443.17
2019-05-10T06:26:44.469Z,153449.72
2019-05-10T06:29:17.535Z,153449.72
2019-05-10T06:31:43.251Z,153465.56
2019-05-10T06:34:11.748Z,153491.87
2019-05-10T06:36:40.278Z,153503.78
2019-05-10T06:39:09.055Z,153489.27
2019-05-10T06:41:37.510Z,153503.78
2019-05-10T06:44:06.195Z,153482.66
2019-05-10T06:46:34.684Z,153518.27
2019-05-10T06:49:08.456Z,153526.19
2019-05-10T06:51:33.481Z,153526.19
2019-05-10T06:54:01.961Z,153519.56
2019-05-10T06:56:30.459Z,153541.97
2019-05-10T06:59:12.222Z,153534.05
2019-05-10T07:01:29.184Z,153547.27
2019-05-10T07:03:57.659Z,153573.59
2019-05-10T07:06:26.211Z,153570.97
2019-05-10T07:08:57.830Z,153592.11
2019-05-10T07:11:24.915Z,153589.48
2019-05-10T07:13:53.419Z,153607.94
2019-05-10T07:16:25.554Z,153569.66
2019-05-10T07:18:54.742Z,153580.25
2019-05-10T07:21:22.291Z,153530.11
2019-05-10T07:23:50.757Z,153563.05
2019-05-10T07:26:23.873Z,153545.95
2019-05-10T07:28:51.779Z,153570.97
2019-05-10T07:31:23.367Z,153498.50
2019-05-10T07:33:49.851Z,153545.95
2019-05-10T07:36:20.819Z,153584.19
2019-05-10T07:38:48.643Z,153597.41
2019-05-10T07:41:19.747Z,153642.20
2019-05-10T07:43:48.228Z,153871.70
2019-05-10T07:46:16.919Z,153978.55
2019-05-10T07:48:46.957Z,154074.88
2019-05-10T07:51:15.674Z,154154.16
2019-05-10T07:53:44.155Z,154234.72
2019-05-10T07:56:12.640Z,154236.03
2019-05-10T07:58:43.169Z,154320.55
2019-05-10T08:01:11.341Z,154345.63
2019-05-10T08:03:44.386Z,154397.19
2019-05-10T08:06:10.134Z,154402.50
2019-05-10T08:08:39.225Z,154435.53
2019-05-10T08:11:08.562Z,154452.72
2019-05-10T08:13:39.364Z,154555.81
2019-05-10T08:16:11.830Z,154555.81
2019-05-10T08:18:41.990Z,154651.03
2019-05-10T08:21:20.873Z,154489.69
2019-05-10T08:23:38.398Z,154549.19
2019-05-10T08:26:11.042Z,154710.55
2019-05-10T08:28:39.817Z,154528.03
2019-05-10T08:31:07.360Z,154542.56
2019-05-10T08:33:36.418Z,154521.41
2019-05-10T08:36:05.676Z,154575.64
2019-05-10T08:38:34.250Z,154873.27
2019-05-10T08:41:07.926Z,154799.14
2019-05-10T08:43:38.927Z,154889.16
2019-05-10T08:46:03.248Z,154915.59
2019-05-10T08:48:33.069Z,154873.27
2019-05-10T08:51:04.063Z,155004.28
2019-05-10T08:53:32.890Z,155075.81
2019-05-10T08:56:02.261Z,155013.56
2019-05-10T08:58:36.967Z,154938.09
2019-05-10T09:01:16.242Z,154730.34
2019-05-10T09:03:32.364Z,154686.72
2019-05-10T09:06:03.429Z,154489.69
2019-05-10T09:08:34.612Z,154587.53
2019-05-10T09:11:06.588Z,154664.25
2019-05-10T09:13:37.113Z,154664.25
2019-05-10T09:16:02.613Z,154815.03
2019-05-10T09:18:33.125Z,154820.30
2019-05-10T09:21:08.568Z,154758.14
2019-05-10T09:23:32.659Z,154690.72
2019-05-10T09:26:09.896Z,154620.63
2019-05-10T09:28:32.205Z,154636.47
2019-05-10T09:31:16.512Z,154538.61
2019-05-10T09:33:31.992Z,154397.19
2019-05-10T09:36:02.789Z,154296.78
2019-05-10T09:38:34.764Z,154344.31
2019-05-10T09:41:02.473Z,154377.42
2019-05-10T09:43:31.932Z,154328.48
2019-05-10T09:46:02.727Z,154243.97
2019-05-10T09:48:33.082Z,154280.91
2019-05-10T09:51:04.018Z,154270.34
2019-05-10T09:53:31.376Z,154243.97
2019-05-10T09:56:02.883Z,154121.16
2019-05-10T09:58:30.069Z,154119.80
2019-05-10T10:01:14.036Z,154047.19
2019-05-10T10:03:30.118Z,154011.53
2019-05-10T10:06:05.167Z,153966.69
2019-05-10T10:08:29.603Z,153982.53
2019-05-10T10:11:01.360Z,153913.91
2019-05-10T10:13:39.354Z,153933.70
2019-05-10T10:15:58.749Z,153888.86
2019-05-10T10:18:28.369Z,153818.89
2019-05-10T10:20:57.122Z,153888.86
2019-05-10T10:23:30.685Z,154065.69
2019-05-10T10:25:57.805Z,154063.00
2019-05-10T10:28:28.381Z,154183.22
2019-05-10T10:31:03.273Z,154295.47
2019-05-10T10:33:29.030Z,154635.16
2019-05-10T10:36:04.629Z,154868.00
2019-05-10T10:38:30.945Z,154733.03
2019-05-10T10:40:57.568Z,154569.02
2019-05-10T10:43:27.263Z,154455.36
2019-05-10T10:45:57.404Z,154389.31
2019-05-10T10:48:28.270Z,154335.06
2019-05-10T10:50:58.657Z,154368.17
2019-05-10T10:53:28.202Z,154257.16
2019-05-10T10:56:03.610Z,154206.97
2019-05-10T10:58:27.530Z,154317.91
2019-05-10T11:00:56.266Z,154339.05
2019-05-10T11:03:30.173Z,154261.09
2019-05-10T11:05:55.024Z,154276.97
2019-05-10T11:08:23.529Z,154331.11
2019-05-10T11:10:52.006Z,154315.28
2019-05-10T11:13:40.498Z,154307.34
2019-05-10T11:15:51.697Z,154251.84
2019-05-10T11:18:21.584Z,154226.78
2019-05-10T11:20:53.859Z,154271.66
2019-05-10T11:23:24.516Z,154316.59
2019-05-10T11:25:56.277Z,154275.66
2019-05-10T11:28:21.087Z,154254.53
2019-05-10T11:30:51.189Z,154320.55
2019-05-10T11:33:29.099Z,154288.84
2019-05-10T11:35:51.365Z,154239.97
2019-05-10T11:38:21.434Z,154201.70
2019-05-10T11:40:50.145Z,154257.16
2019-05-10T11:43:23.942Z,154216.22
2019-05-10T11:45:51.339Z,154259.78
2019-05-10T11:48:21.454Z,154299.41
2019-05-10T11:50:51.373Z,154357.56
2019-05-10T11:53:20.966Z,154385.31
2019-05-10T11:55:51.708Z,154312.61
2019-05-10T11:58:23.517Z,154362.81
2019-05-10T12:00:55.843Z,154421.02
2019-05-10T12:03:23.499Z,154384.00
2019-05-10T12:05:53.171Z,154386.63
2019-05-10T12:08:22.329Z,154422.33
2019-05-10T12:10:53.386Z,154440.84
2019-05-10T12:13:24.939Z,154413.08
2019-05-10T12:15:52.234Z,154346.98
2019-05-10T12:21:00.268Z,154193.78
2019-05-10T12:23:29.709Z,154111.86
2019-05-10T12:26:31.279Z,154304.72
2019-05-10T12:26:50.485Z,154123.78
2019-05-10T12:28:28.496Z,154130.41
2019-05-10T12:30:51.938Z,154053.77
2019-05-10T12:33:24.907Z,154119.80
2019-05-10T12:35:51.064Z,154016.84
2019-05-10T12:38:23.560Z,153921.84
2019-05-10T12:40:51.315Z,153879.63
2019-05-10T12:43:21.114Z,153905.98
2019-05-10T12:45:51.829Z,153800.41
2019-05-10T12:48:23.138Z,153795.17
2019-05-10T12:50:54.466Z,153758.22
2019-05-10T12:53:21.471Z,153760.84
2019-05-10T12:55:50.265Z,153760.84
2019-05-10T12:58:19.625Z,153710.72
2019-05-10T13:00:52.733Z,153687.00
2019-05-10T13:03:19.835Z,153747.67
2019-05-10T13:05:52.880Z,153705.47
2019-05-10T13:08:19.589Z,153742.38
2019-05-10T13:10:49.946Z,153681.77
2019-05-10T13:13:23.709Z,153654.06
2019-05-10T13:15:48.548Z,153650.13
2019-05-10T13:18:17.029Z,153644.83
2019-05-10T13:20:45.554Z,153663.30
2019-05-10T13:23:16.022Z,153652.75
2019-05-10T13:25:44.314Z,153684.39
2019-05-10T13:28:12.800Z,153660.67
2019-05-10T13:30:41.450Z,153651.44
2019-05-10T13:33:09.940Z,153671.22
2019-05-10T13:35:38.581Z,153687.00
2019-05-10T13:38:07.118Z,153676.47
2019-05-10T13:40:38.901Z,153689.62
2019-05-10T13:43:05.866Z,153721.28
2019-05-10T13:45:37.586Z,153684.39
2019-05-10T13:48:04.641Z,153694.94
2019-05-10T13:50:33.201Z,153722.64
2019-05-10T13:53:01.809Z,153754.28
2019-05-10T13:55:30.337Z,153755.59
2019-05-10T13:57:58.845Z,153768.77
2019-05-10T14:00:33.098Z,153781.94
2019-05-10T14:02:57.853Z,153816.27
2019-05-10T14:05:26.336Z,153884.88
2019-05-10T14:07:54.858Z,153900.73
2019-05-10T14:10:25.152Z,153915.22
2019-05-10T14:12:56.275Z,153971.98
2019-05-10T14:15:23.828Z,154018.16
2019-05-10T14:17:52.355Z,154043.20
2019-05-10T14:20:25.323Z,154070.94
2019-05-10T14:22:55.695Z,154069.63
2019-05-10T14:25:21.669Z,154109.23
2019-05-10T14:27:50.168Z,154143.59
2019-05-10T14:30:19.172Z,154106.61
2019-05-10T14:32:47.668Z,154140.97
2019-05-10T14:35:22.564Z,154101.31
2019-05-10T14:37:47.984Z,154069.63
2019-05-10T14:40:27.387Z,154008.91
2019-05-10T14:42:47.298Z,154064.31
2019-05-10T14:45:16.042Z,154068.31
2019-05-10T14:47:48.292Z,154089.42
2019-05-10T14:50:19.445Z,154069.63
2019-05-10T14:52:45.443Z,154098.67
2019-05-10T14:55:13.939Z,154089.42
2019-05-10T14:57:42.443Z,154085.44
2019-05-10T15:00:12.704Z,154088.11
2019-05-10T15:02:41.187Z,154020.78
2019-05-10T15:05:15.638Z,154014.22
2019-05-10T15:07:40.150Z,153969.31
2019-05-10T15:10:08.978Z,153991.73
2019-05-10T15:12:37.484Z,153989.11
2019-05-10T15:15:07.324Z,153990.42
2019-05-10T15:17:35.900Z,153991.73
2019-05-10T15:20:07.019Z,154007.59
2019-05-10T15:22:35.513Z,153994.41
2019-05-10T15:25:05.468Z,153958.75
2019-05-10T15:27:34.156Z,153983.84
2019-05-10T15:30:05.181Z,153974.61
2019-05-10T15:32:32.997Z,153966.69
2019-05-10T15:35:07.548Z,153927.09
2019-05-10T15:37:31.717Z,153874.33
2019-05-10T15:40:05.649Z,153840.00
2019-05-10T15:42:36.327Z,153824.14
2019-05-10T15:45:05.389Z,153808.34
2019-05-10T15:47:31.254Z,153781.94
2019-05-10T15:50:01.286Z,153793.81
2019-05-10T15:52:30.105Z,153795.17
2019-05-10T15:54:58.602Z,153797.78
2019-05-10T15:57:27.095Z,153783.25
2019-05-10T15:59:59.130Z,153821.52
2019-05-10T16:02:25.864Z,153821.52
2019-05-10T16:04:54.382Z,153730.52
2019-05-10T16:07:22.908Z,153681.77
2019-05-10T16:09:54.547Z,153655.38
2019-05-10T16:12:21.673Z,153652.75
2019-05-10T16:14:50.178Z,153655.38
2019-05-10T16:17:23.530Z,153663.30
2019-05-10T16:19:50.484Z,153681.77
2019-05-10T16:22:19.077Z,153676.47
2019-05-10T16:24:47.575Z,153650.13
2019-05-10T16:27:16.040Z,153668.53
2019-05-10T16:29:44.534Z,153700.19
2019-05-10T16:32:13.074Z,153675.16
2019-05-10T16:34:41.533Z,153650.13
2019-05-10T16:37:10.005Z,153607.94
2019-05-10T16:39:38.582Z,153609.27
2019-05-10T16:42:07.045Z,153618.48
2019-05-10T16:44:35.531Z,153594.72
2019-05-10T16:47:04.014Z,153565.67
2019-05-10T16:49:32.531Z,153563.05
2019-05-10T16:52:01.010Z,153559.13
2019-05-10T16:54:30.149Z,153539.34
2019-05-10T16:56:59.759Z,153524.87
2019-05-10T16:59:29.667Z,153523.50
2019-05-10T17:02:04.623Z,153512.97
2019-05-10T17:04:32.183Z,153509.03
2019-05-10T17:06:59.493Z,153482.66
2019-05-10T17:09:27.995Z,153482.66
2019-05-10T17:11:59.080Z,153469.50
2019-05-10T17:14:26.756Z,153461.58
2019-05-10T17:16:58.877Z,153429.95
2019-05-10T17:19:27.983Z,153447.09
2019-05-10T17:21:55.699Z,153423.41
2019-05-10T17:24:25.529Z,153418.11
2019-05-10T17:26:54.168Z,153399.66
2019-05-10T17:29:22.712Z,153394.41
2019-05-10T17:31:51.245Z,153411.56
2019-05-10T17:34:27.876Z,153408.89
2019-05-10T17:36:51.694Z,153385.19
2019-05-10T17:39:20.164Z,153391.80
2019-05-10T17:41:48.700Z,153373.34
2019-05-10T17:44:17.472Z,153375.97
2019-05-10T17:46:50.303Z,153353.58
2019-05-10T17:49:18.591Z,153349.66
2019-05-10T17:51:47.409Z,153346.97
2019-05-10T17:54:15.835Z,153337.81
2019-05-10T17:56:44.320Z,153333.81
2019-05-10T17:59:13.966Z,153323.28
2019-05-10T18:01:42.628Z,153320.66
2019-05-10T18:04:11.095Z,153312.75
2019-05-10T18:06:39.578Z,153294.31
2019-05-10T18:09:08.190Z,153282.47
2019-05-10T18:11:42.396Z,153295.61
2019-05-10T18:14:06.904Z,153258.72
2019-05-10T18:16:35.385Z,153256.09
2019-05-10T18:19:03.867Z,153249.50
2019-05-10T18:21:32.359Z,153231.06
2019-05-10T18:24:00.893Z,153223.14
2019-05-10T18:26:34.238Z,153221.84
2019-05-10T18:28:59.594Z,153202.09
2019-05-10T18:31:28.107Z,153204.75
2019-05-10T18:33:56.571Z,153181.03
2019-05-10T18:36:49.934Z,153202.09
2019-05-10T18:38:55.262Z,153186.31
2019-05-10T18:41:23.749Z,153165.25
2019-05-10T18:43:52.229Z,153149.44
2019-05-10T18:46:20.713Z,153162.63
2019-05-10T18:48:49.183Z,153142.89
2019-05-10T18:51:23.488Z,153146.81
2019-05-10T18:53:47.905Z,153128.37
2019-05-10T18:56:16.411Z,153115.22
2019-05-10T18:58:44.891Z,153108.63
2019-05-10T19:01:13.399Z,153104.70
2019-05-10T19:03:41.851Z,153073.13
2019-05-10T19:06:11.336Z,153073.13
2019-05-10T19:08:41.081Z,153069.19
2019-05-10T19:11:10.389Z,153082.34
2019-05-10T19:13:47.946Z,153077.05
2019-05-10T19:16:10.984Z,153057.31
2019-05-10T19:18:39.451Z,153052.06
2019-05-10T19:21:07.953Z,153059.97
2019-05-10T19:23:36.427Z,153070.50
2019-05-10T19:26:04.938Z,153046.78
2019-05-10T19:28:33.390Z,152988.92
2019-05-10T19:31:01.861Z,152970.50
2019-05-10T19:33:36.135Z,152975.78
2019-05-10T19:36:00.541Z,152965.25
2019-05-10T19:38:29.091Z,152965.25
2019-05-10T19:40:57.630Z,152981.02
2019-05-10T19:43:26.134Z,152973.11
2019-05-10T19:45:57.486Z,152987.61
2019-05-10T19:48:29.435Z,152957.34
2019-05-10T19:50:55.091Z,152971.80
2019-05-10T19:53:23.591Z,152957.34
2019-05-10T19:55:57.305Z,152965.25
2019-05-10T19:58:26.500Z,152958.66
2019-05-10T20:00:52.529Z,152950.70
2019-05-10T20:03:21.013Z,152958.66
2019-05-10T20:05:49.514Z,152944.16
2019-05-10T20:08:18.008Z,152940.19
2019-05-10T20:10:46.486Z,152949.39
2019-05-10T20:13:14.970Z,152940.19
2019-05-10T20:15:43.436Z,152948.09
2019-05-10T20:18:11.939Z,152915.22
2019-05-10T20:20:40.439Z,152932.28
2019-05-10T20:23:08.931Z,152920.45
2019-05-10T20:25:37.382Z,152930.97
2019-05-10T20:28:06.542Z,152925.73
2019-05-10T20:30:35.334Z,152925.73
2019-05-10T20:33:03.813Z,152920.45
2019-05-10T20:35:32.289Z,152909.92
2019-05-10T20:38:02.518Z,152912.59
2019-05-10T20:40:30.968Z,152904.69
2019-05-10T20:42:59.477Z,152874.44
2019-05-10T20:45:27.945Z,152873.13
2019-05-10T20:47:56.448Z,152867.84
2019-05-10T20:50:24.924Z,152871.83
2019-05-10T20:52:53.414Z,152878.36
2019-05-10T20:55:21.960Z,152869.16
2019-05-10T20:57:50.460Z,152867.84
2019-05-10T21:00:19.265Z,152837.59
2019-05-10T21:02:47.781Z,152823.16
2019-05-10T21:05:16.266Z,152821.84
2019-05-10T21:07:44.774Z,152838.91
2019-05-10T21:10:13.717Z,152854.70
2019-05-10T21:12:42.222Z,152828.38
2019-05-10T21:15:10.796Z,152852.09
2019-05-10T21:17:39.275Z,152815.25
2019-05-10T21:20:08.001Z,152812.64
2019-05-10T21:22:36.491Z,152817.88
2019-05-10T21:25:07.249Z,152785.00
2019-05-10T21:27:35.722Z,152754.77
2019-05-10T21:30:05.959Z,152760.05
2019-05-10T21:32:34.425Z,152779.78
2019-05-10T21:35:02.923Z,152810.02
2019-05-10T21:37:31.387Z,152804.73
2019-05-10T21:39:59.884Z,152785.00
2019-05-10T21:42:28.348Z,152767.95
2019-05-10T21:44:56.844Z,152733.73
2019-05-10T21:47:25.334Z,152731.13
2019-05-10T21:49:53.821Z,152710.09
2019-05-10T21:52:22.294Z,152686.44
2019-05-10T21:54:50.797Z,152671.97
2019-05-10T21:57:19.286Z,152658.83
2019-05-10T21:59:54.690Z,152660.14
2019-05-10T22:02:23.348Z,152631.22
2019-05-10T22:04:51.833Z,152636.50
2019-05-10T22:07:20.312Z,152641.72
2019-05-10T22:09:48.929Z,152625.98
2019-05-10T22:12:17.405Z,152640.42
2019-05-10T22:14:45.891Z,152689.06
2019-05-10T22:17:14.352Z,152679.86
2019-05-10T22:19:42.858Z,152625.98
2019-05-10T22:22:11.334Z,152645.70
2019-05-10T22:24:39.841Z,152666.73
2019-05-10T22:27:08.302Z,152647.02
2019-05-10T22:29:36.803Z,152652.25
2019-05-10T22:32:05.336Z,152660.14
2019-05-10T22:34:33.854Z,152649.62
2019-05-10T22:37:02.302Z,152660.14
2019-05-10T22:39:30.786Z,152618.09
2019-05-10T22:41:59.271Z,152535.27
2019-05-10T22:44:27.776Z,152536.58
2019-05-10T22:46:56.283Z,152565.48
2019-05-10T22:49:24.802Z,152586.50
2019-05-10T22:51:53.269Z,152587.81
2019-05-10T22:54:22.151Z,152587.81
2019-05-10T22:56:50.619Z,152554.97
2019-05-10T22:59:19.111Z,152537.88
2019-05-10T23:01:47.590Z,152544.47
2019-05-10T23:04:16.169Z,152557.59
2019-05-10T23:06:44.695Z,152553.67
2019-05-10T23:09:23.978Z,152539.19
2019-05-10T23:11:43.364Z,152531.34
2019-05-10T23:14:11.939Z,152541.86
2019-05-10T23:16:40.414Z,152549.69
2019-05-10T23:19:08.881Z,152551.06
2019-05-10T23:21:37.387Z,152549.69
2019-05-10T23:24:08.668Z,152541.86
2019-05-10T23:26:37.157Z,152539.19
2019-05-10T23:29:05.683Z,152539.19
2019-05-10T23:31:35.581Z,152533.97
2019-05-10T23:34:04.297Z,152539.19
2019-05-10T23:36:32.787Z,152509.03
2019-05-10T23:39:01.269Z,152512.94
2019-05-10T23:41:29.759Z,152465.64
2019-05-10T23:43:58.228Z,152430.20
2019-05-10T23:46:26.725Z,152421.00
2019-05-10T23:48:55.200Z,152444.63
2019-05-10T23:51:23.736Z,152457.80
2019-05-10T23:53:52.463Z,152439.41
2019-05-10T23:56:20.994Z,152361.91
2019-05-10T23:58:49.506Z,152415.78
